Time;durP1;ratioP1;P1;durP2;ratioP2;P2;SDS_P1;SDS_P2;PMS_P1;PMS_P2;Temp;Humidity;BMP_temperature;BMP_pressure;BME280_temperature;BME280_humidity;BME280_pressure;Samples;Min_cycle;Max_cycle;Signal;HPM_P1;HPM_P2
2021/07/27 00:00:32;;;;;;;12.52;8.35;;;21.80;92.30;;;;;;5094720;28;20123;-49
2021/07/27 00:03:01;;;;;;;11.70;8.65;;;21.70;92.30;;;;;;5094425;28;20510;-47
2021/07/27 00:05:27;;;;;;;11.02;7.57;;;21.70;92.30;;;;;;5094456;28;20066;-50
2021/07/27 00:07:53;;;;;;;7.97;6.93;;;21.70;92.40;;;;;;5090117;28;20602;-47
2021/07/27 00:10:19;;;;;;;11.20;7.32;;;21.70;92.30;;;;;;5083474;28;20115;-48
2021/07/27 00:12:46;;;;;;;11.32;7.43;;;21.70;92.20;;;;;;5083271;28;20020;-49
2021/07/27 00:15:11;;;;;;;11.13;7.90;;;21.80;92.30;;;;;;5084478;28;20040;-47
2021/07/27 00:17:37;;;;;;;10.35;7.93;;;21.70;92.30;;;;;;5083590;28;20020;-53
2021/07/27 00:20:03;;;;;;;9.68;7.55;;;21.60;92.60;;;;;;5085610;28;20506;-46
2021/07/27 00:22:29;;;;;;;13.27;7.63;;;21.60;92.60;;;;;;5082249;28;20039;-51
2021/07/27 00:24:54;;;;;;;9.02;6.85;;;21.60;92.70;;;;;;5073771;28;20029;-48
2021/07/27 00:27:20;;;;;;;8.35;7.35;;;21.60;92.70;;;;;;5073786;28;20045;-49
2021/07/27 00:29:46;;;;;;;9.27;7.22;;;21.60;92.70;;;;;;5073980;28;20090;-48
2021/07/27 00:32:11;;;;;;;11.50;6.97;;;21.60;92.70;;;;;;5073814;28;20113;-48
2021/07/27 00:34:37;;;;;;;10.35;7.35;;;21.60;92.60;;;;;;5073735;28;20082;-46
2021/07/27 00:37:03;;;;;;;10.63;7.68;;;21.60;92.70;;;;;;5081671;28;20048;-47
2021/07/27 00:39:28;;;;;;;8.90;7.22;;;21.40;92.70;;;;;;5085274;28;20031;-47
2021/07/27 00:41:54;;;;;;;8.57;7.20;;;21.40;92.80;;;;;;5064565;28;20032;-52
2021/07/27 00:44:20;;;;;;;8.23;7.22;;;21.40;92.70;;;;;;5084683;28;20133;-47
2021/07/27 00:46:45;;;;;;;7.90;6.90;;;21.40;92.70;;;;;;5082475;28;20377;-46
2021/07/27 00:49:11;;;;;;;12.30;7.15;;;21.40;92.60;;;;;;5082952;28;20046;-47
2021/07/27 00:51:39;;;;;;;9.02;7.28;;;21.30;92.80;;;;;;5084558;28;20078;-51
2021/07/27 00:54:06;;;;;;;13.55;7.88;;;21.20;92.80;;;;;;5082510;28;20047;-51
2021/07/27 00:56:34;;;;;;;8.95;6.95;;;21.20;92.90;;;;;;5066537;28;20028;-49
2021/07/27 00:59:00;;;;;;;8.02;6.88;;;21.20;92.90;;;;;;5064131;28;20029;-49
2021/07/27 01:01:25;;;;;;;11.50;7.72;;;21.20;92.80;;;;;;5083916;28;20597;-50
2021/07/27 01:03:51;;;;;;;11.15;7.00;;;21.30;92.80;;;;;;5085763;28;20396;-49
2021/07/27 01:06:17;;;;;;;8.50;6.75;;;21.20;92.80;;;;;;5084621;28;20036;-47
2021/07/27 01:08:43;;;;;;;7.82;7.00;;;21.20;92.90;;;;;;5081484;28;20036;-50
2021/07/27 01:11:08;;;;;;;7.32;6.60;;;21.30;92.80;;;;;;5083036;28;20021;-49
2021/07/27 01:13:34;;;;;;;7.35;6.45;;;21.30;92.70;;;;;;5083240;28;20070;-50
2021/07/27 01:16:05;;;;;;;8.55;7.00;;;21.30;92.80;;;;;;5081425;28;20089;-48
2021/07/27 01:18:36;;;;;;;8.95;6.88;;;21.40;92.80;;;;;;5093165;28;20040;-48
2021/07/27 01:37:47;;;;;;;9.32;6.88;;;20.40;93.70;;;;;;5081166;28;20024;-50
2021/07/27 01:40:16;;;;;;;9.40;7.67;;;20.30;93.80;;;;;;5081083;28;20035;-48
2021/07/27 01:42:41;;;;;;;12.35;7.22;;;20.20;94.10;;;;;;5083485;28;20111;-48
2021/07/27 01:45:09;;;;;;;9.45;6.95;;;20.20;94.20;;;;;;5082366;28;20090;-52
2021/07/27 01:47:35;;;;;;;8.52;7.22;;;20.30;94.00;;;;;;5080708;28;20527;-48
2021/07/27 01:50:01;;;;;;;9.30;7.00;;;20.40;94.00;;;;;;5081149;28;20028;-46
2021/07/27 01:52:26;;;;;;;7.88;7.07;;;20.40;94.00;;;;;;5081997;28;20039;-46
2021/07/27 01:54:54;;;;;;;8.68;7.30;;;20.50;94.00;;;;;;5080312;28;20041;-49
2021/07/27 01:57:21;;;;;;;8.52;6.90;;;20.50;93.90;;;;;;5079771;28;20383;-47
2021/07/27 02:00:05;;;;;;;8.38;7.10;;;20.50;94.00;;;;;;5081870;28;20036;-46
2021/07/27 02:02:30;;;;;;;11.73;7.65;;;20.60;94.00;;;;;;5081812;28;20021;-47
2021/07/27 02:04:56;;;;;;;8.20;6.40;;;20.60;94.10;;;;;;5077421;28;20097;-47
2021/07/27 02:07:21;;;;;;;8.82;6.95;;;20.60;94.10;;;;;;5053178;28;20506;-52
2021/07/27 02:09:50;;;;;;;8.35;6.90;;;20.60;94.00;;;;;;5072288;28;20563;-48
2021/07/27 02:12:19;;;;;;;9.32;7.50;;;20.50;94.10;;;;;;5072530;28;20060;-48
2021/07/27 02:15:05;;;;;;;8.93;7.28;;;20.60;94.10;;;;;;5072352;28;20538;-47
2021/07/27 02:17:31;;;;;;;7.97;7.18;;;20.60;94.20;;;;;;5071906;28;20032;-51
2021/07/27 02:20:04;;;;;;;8.82;7.30;;;20.60;94.20;;;;;;5085176;28;20028;-50
2021/07/27 02:22:34;;;;;;;11.27;7.18;;;20.60;94.10;;;;;;5092161;28;20446;-47
2021/07/27 02:24:59;;;;;;;10.02;7.25;;;20.70;93.60;;;;;;5092047;28;20115;-48
2021/07/27 02:27:28;;;;;;;10.30;7.32;;;20.60;93.70;;;;;;5091658;28;20487;-48
2021/07/27 02:29:54;;;;;;;9.77;7.40;;;20.50;93.70;;;;;;5091778;28;20492;-50
2021/07/27 02:32:20;;;;;;;8.20;7.18;;;20.50;93.60;;;;;;5092243;28;20081;-47
2021/07/27 02:34:46;;;;;;;9.05;7.53;;;20.50;93.40;;;;;;5092061;28;20127;-50
2021/07/27 02:37:13;;;;;;;7.82;7.03;;;20.40;93.60;;;;;;5091549;28;20028;-48
2021/07/27 02:39:39;;;;;;;8.45;7.65;;;20.30;93.90;;;;;;5092437;28;20024;-53
2021/07/27 02:42:04;;;;;;;9.77;7.10;;;20.40;93.90;;;;;;5091964;28;20734;-47
2021/07/27 02:44:30;;;;;;;9.38;7.80;;;20.40;93.80;;;;;;5091503;28;20491;-47
2021/07/27 02:46:55;;;;;;;10.35;7.50;;;20.30;93.80;;;;;;5091398;28;20480;-47
2021/07/27 02:49:21;;;;;;;8.90;7.82;;;20.30;93.90;;;;;;5091841;28;20028;-47
2021/07/27 02:51:51;;;;;;;8.57;7.60;;;20.30;93.90;;;;;;5091647;28;20100;-48
2021/07/27 02:54:17;;;;;;;8.50;7.60;;;20.20;94.20;;;;;;5092112;28;20039;-49
2021/07/27 02:56:43;;;;;;;10.13;7.68;;;20.20;94.20;;;;;;5091276;28;20580;-48
2021/07/27 02:59:08;;;;;;;10.32;7.55;;;20.20;94.10;;;;;;5091645;28;20077;-46
2021/07/27 03:01:34;;;;;;;12.23;7.35;;;20.30;94.20;;;;;;5091685;28;20028;-50
2021/07/27 03:04:00;;;;;;;9.82;8.05;;;20.30;94.30;;;;;;5091629;28;20086;-49
2021/07/27 03:06:28;;;;;;;9.55;7.22;;;20.30;94.30;;;;;;5073457;28;20031;-49
2021/07/27 03:11:23;;;;;;;13.80;7.80;;;20.20;94.10;;;;;;5095104;28;20028;-48
2021/07/27 03:13:49;;;;;;;11.98;7.97;;;20.10;94.00;;;;;;5095379;28;20024;-49
2021/07/27 03:16:23;;;;;;;9.60;8.00;;;20.10;94.10;;;;;;5095276;28;20028;-49
2021/07/27 03:18:51;;;;;;;9.80;7.80;;;20.10;93.90;;;;;;5095386;28;20031;-48
2021/07/27 03:21:21;;;;;;;8.07;7.28;;;20.10;93.90;;;;;;5095370;28;20032;-50
2021/07/27 03:23:48;;;;;;;11.10;8.18;;;20.00;94.00;;;;;;5095306;28;20064;-46
2021/07/27 03:26:14;;;;;;;11.13;7.70;;;20.00;94.00;;;;;;5095041;28;20029;-49
2021/07/27 03:28:40;;;;;;;8.52;7.63;;;19.90;93.90;;;;;;5096993;28;20419;-49
2021/07/27 03:31:06;;;;;;;9.25;8.25;;;19.90;94.20;;;;;;5095261;28;20387;-50
2021/07/27 03:33:32;;;;;;;10.23;7.68;;;20.00;94.00;;;;;;5095617;28;20032;-53
2021/07/27 03:35:57;;;;;;;12.52;8.07;;;20.00;93.80;;;;;;5094748;28;20036;-47
2021/07/27 03:38:23;;;;;;;8.13;7.30;;;19.90;93.70;;;;;;5095560;28;20040;-51
2021/07/27 03:40:49;;;;;;;10.63;7.55;;;19.80;93.60;;;;;;5095130;28;20064;-47
2021/07/27 03:43:14;;;;;;;9.10;7.68;;;19.70;93.80;;;;;;5094671;28;20036;-48
2021/07/27 03:45:40;;;;;;;9.32;8.38;;;19.60;94.10;;;;;;5076277;28;20043;-50
2021/07/27 03:48:06;;;;;;;11.55;8.38;;;19.60;94.20;;;;;;5094857;28;20081;-47
2021/07/27 03:50:31;;;;;;;11.05;8.45;;;19.60;94.10;;;;;;5094796;28;20036;-47
2021/07/27 03:52:57;;;;;;;8.60;7.72;;;19.60;94.00;;;;;;5094479;28;20097;-48
2021/07/27 03:55:23;;;;;;;8.52;7.22;;;19.70;94.20;;;;;;5094782;28;20036;-48
2021/07/27 03:57:52;;;;;;;9.35;7.53;;;19.60;94.20;;;;;;5095294;28;20544;-52
2021/07/27 04:00:18;;;;;;;8.23;7.43;;;19.60;94.10;;;;;;5094333;28;20426;-47
2021/07/27 04:02:44;;;;;;;11.85;7.22;;;19.50;94.20;;;;;;5094641;28;20081;-50
2021/07/27 04:05:09;;;;;;;8.88;7.28;;;19.50;94.30;;;;;;5085936;28;20476;-48
2021/07/27 04:07:35;;;;;;;10.13;8.00;;;19.50;94.20;;;;;;5071246;28;20391;-47
2021/07/27 04:10:05;;;;;;;11.45;7.43;;;19.50;94.20;;;;;;5094210;28;20028;-49
2021/07/27 04:12:31;;;;;;;8.88;6.80;;;19.50;94.20;;;;;;5094223;28;20043;-50
2021/07/27 04:14:56;;;;;;;8.25;7.15;;;19.50;94.30;;;;;;5094460;28;20055;-48
2021/07/27 04:17:22;;;;;;;8.45;7.13;;;19.40;94.40;;;;;;5093906;28;20040;-47
2021/07/27 04:19:48;;;;;;;9.93;7.25;;;19.40;94.50;;;;;;5093843;28;20032;-50
2021/07/27 04:22:14;;;;;;;9.90;7.80;;;19.40;94.30;;;;;;5094128;28;20028;-47
2021/07/27 04:24:40;;;;;;;9.20;7.57;;;19.50;94.00;;;;;;5094993;28;20085;-51
2021/07/27 04:27:06;;;;;;;9.27;7.53;;;19.60;93.90;;;;;;5093579;28;20052;-50
2021/07/27 04:29:32;;;;;;;11.52;7.70;;;19.60;93.90;;;;;;5094022;28;20484;-52
2021/07/27 04:31:57;;;;;;;10.20;7.78;;;19.50;94.00;;;;;;5094189;28;20047;-48
2021/07/27 04:34:23;;;;;;;9.85;7.65;;;19.50;94.00;;;;;;5093908;28;20035;-49
2021/07/27 04:36:50;;;;;;;9.55;8.25;;;19.60;94.00;;;;;;5093926;28;20082;-47
2021/07/27 04:39:15;;;;;;;9.00;7.03;;;19.60;93.70;;;;;;5093587;28;20024;-47
2021/07/27 04:41:41;;;;;;;11.18;7.93;;;19.70;93.70;;;;;;5094373;28;20061;-46
2021/07/27 04:44:07;;;;;;;9.02;7.05;;;19.80;93.60;;;;;;5093970;28;20036;-49
2021/07/27 04:46:35;;;;;;;7.90;6.40;;;19.90;93.50;;;;;;5093809;28;20483;-51
2021/07/27 04:49:00;;;;;;;7.47;6.43;;;19.80;93.50;;;;;;5094309;28;20077;-52
2021/07/27 04:51:28;;;;;;;8.32;7.47;;;19.90;93.40;;;;;;5093227;28;20429;-51
2021/07/27 04:53:58;;;;;;;11.32;7.28;;;19.90;93.40;;;;;;5093523;28;20387;-51
2021/07/27 04:56:25;;;;;;;10.77;8.15;;;20.00;93.40;;;;;;5093557;28;20028;-52
2021/07/27 04:58:51;;;;;;;9.77;7.78;;;20.10;93.20;;;;;;5090919;28;20043;-49
2021/07/27 05:01:17;;;;;;;9.02;7.03;;;20.10;93.10;;;;;;5072971;28;20029;-50
2021/07/27 05:03:42;;;;;;;7.13;6.43;;;20.10;93.10;;;;;;5073228;28;20064;-49
2021/07/27 05:06:08;;;;;;;10.50;7.07;;;20.10;93.20;;;;;;5072057;28;20512;-49
2021/07/27 05:08:33;;;;;;;9.93;7.60;;;20.10;93.30;;;;;;5073236;28;20033;-51
2021/07/27 05:11:02;;;;;;;10.63;7.03;;;20.10;93.40;;;;;;5073022;28;20035;-47
2021/07/27 05:13:28;;;;;;;14.35;8.68;;;20.20;93.40;;;;;;5072884;28;20128;-52
2021/07/27 05:15:55;;;;;;;9.90;7.30;;;20.20;93.30;;;;;;5071972;28;20113;-49
2021/07/27 05:18:20;;;;;;;10.57;7.57;;;20.10;93.60;;;;;;5081168;28;20029;-48
2021/07/27 05:20:46;;;;;;;14.90;8.40;;;20.20;93.60;;;;;;5084314;28;20504;-50
2021/07/27 05:23:11;;;;;;;9.13;6.85;;;20.20;93.70;;;;;;5083345;28;20028;-53
2021/07/27 05:25:39;;;;;;;10.77;7.50;;;20.00;94.10;;;;;;5081521;28;20112;-48
2021/07/27 05:28:08;;;;;;;10.05;7.68;;;20.10;94.00;;;;;;5075872;28;20044;-53
2021/07/27 05:30:33;;;;;;;8.38;7.47;;;20.20;94.00;;;;;;5072963;28;20037;-49
2021/07/27 05:33:01;;;;;;;10.60;7.63;;;20.20;94.10;;;;;;5071874;28;20488;-50
2021/07/27 05:35:26;;;;;;;11.93;7.55;;;20.30;94.40;;;;;;5072104;28;20032;-51
2021/07/27 05:37:52;;;;;;;10.20;7.40;;;20.30;94.10;;;;;;5072333;28;20112;-49
2021/07/27 05:40:17;;;;;;;9.98;7.97;;;20.20;94.20;;;;;;5082197;28;20044;-49
2021/07/27 05:42:43;;;;;;;9.35;8.30;;;20.20;94.40;;;;;;5083323;28;20036;-51
2021/07/27 05:45:09;;;;;;;11.35;7.57;;;20.30;94.40;;;;;;5088689;28;20039;-47
2021/07/27 05:47:35;;;;;;;11.18;7.85;;;20.50;94.00;;;;;;5071713;28;20029;-48
2021/07/27 05:50:00;;;;;;;11.00;7.32;;;20.70;93.80;;;;;;5071834;28;20484;-49
2021/07/27 05:52:26;;;;;;;10.65;7.93;;;20.90;93.50;;;;;;5072286;28;20032;-50
2021/07/27 05:54:51;;;;;;;11.73;9.07;;;21.00;93.30;;;;;;5076693;28;20036;-49
2021/07/27 05:57:17;;;;;;;14.57;8.43;;;20.90;93.50;;;;;;5056640;28;20502;-49
2021/07/27 05:59:43;;;;;;;13.40;7.32;;;20.90;93.60;;;;;;5087278;28;20415;-50
2021/07/27 06:02:12;;;;;;;10.63;7.57;;;21.20;93.40;;;;;;5091899;28;20028;-47
2021/07/27 06:04:38;;;;;;;11.13;7.45;;;21.20;93.30;;;;;;5091028;28;20035;-47
2021/07/27 06:07:04;;;;;;;10.38;7.72;;;21.20;93.40;;;;;;5092294;28;20051;-51
2021/07/27 06:09:30;;;;;;;11.45;7.97;;;21.20;93.50;;;;;;5092402;28;20066;-51
2021/07/27 06:11:55;;;;;;;9.60;7.45;;;21.20;93.40;;;;;;5093447;28;20078;-50
2021/07/27 06:14:21;;;;;;;9.07;7.53;;;21.20;93.70;;;;;;5092922;28;20051;-49
2021/07/27 06:16:46;;;;;;;8.20;7.28;;;21.20;93.70;;;;;;5092521;28;20043;-49
2021/07/27 06:19:12;;;;;;;13.27;8.75;;;21.30;93.70;;;;;;5092310;28;20031;-49
2021/07/27 06:21:39;;;;;;;11.75;7.78;;;21.30;93.50;;;;;;5092543;28;20384;-48
2021/07/27 06:24:06;;;;;;;12.10;7.95;;;21.30;93.20;;;;;;5092193;28;20043;-47
2021/07/27 06:26:32;;;;;;;8.65;7.75;;;21.30;93.30;;;;;;5091829;28;20043;-49
2021/07/27 06:28:57;;;;;;;12.02;7.93;;;21.30;93.20;;;;;;5091610;28;20044;-48
2021/07/27 06:31:24;;;;;;;15.88;9.77;;;21.50;92.90;;;;;;5087169;28;20143;-49
2021/07/27 06:33:49;;;;;;;8.35;7.53;;;21.50;92.90;;;;;;5088116;28;20468;-50
2021/07/27 06:36:15;;;;;;;10.30;7.72;;;21.50;92.80;;;;;;5071688;28;20075;-49
2021/07/27 06:38:41;;;;;;;11.50;7.55;;;21.50;92.80;;;;;;5082054;28;20056;-48
2021/07/27 06:41:08;;;;;;;10.55;7.88;;;21.40;93.00;;;;;;5089006;28;20032;-51
2021/07/27 06:43:34;;;;;;;15.77;7.82;;;21.40;93.10;;;;;;5077543;28;20081;-51
2021/07/27 06:46:00;;;;;;;9.05;7.40;;;21.50;93.20;;;;;;5075536;28;20048;-48
2021/07/27 06:48:26;;;;;;;14.77;7.97;;;21.70;92.60;;;;;;5075697;28;20072;-49
2021/07/27 06:50:52;;;;;;;9.45;7.03;;;21.70;92.40;;;;;;5084072;28;20028;-52
2021/07/27 06:53:18;;;;;;;9.82;7.40;;;21.80;92.10;;;;;;5081114;28;20020;-52
2021/07/27 06:55:44;;;;;;;9.68;7.70;;;21.70;92.30;;;;;;5093041;28;20506;-48
2021/07/27 06:58:10;;;;;;;7.63;6.82;;;21.70;91.90;;;;;;5092476;28;20064;-53
2021/07/27 07:00:39;;;;;;;10.55;7.72;;;21.70;92.10;;;;;;5075039;28;20135;-49
2021/07/27 07:03:07;;;;;;;7.95;6.93;;;21.80;91.90;;;;;;5075444;28;20118;-48
2021/07/27 07:05:33;;;;;;;13.43;7.57;;;21.80;92.00;;;;;;5075241;28;20037;-48
2021/07/27 07:07:59;;;;;;;12.70;7.47;;;21.90;91.80;;;;;;5089104;28;20501;-49
2021/07/27 07:10:25;;;;;;;8.25;7.45;;;21.90;91.60;;;;;;5096159;28;20111;-48
2021/07/27 07:12:50;;;;;;;8.32;6.93;;;22.00;91.60;;;;;;5095867;28;20116;-49
2021/07/27 07:15:16;;;;;;;9.60;7.72;;;22.10;91.70;;;;;;5095700;28;20028;-54
2021/07/27 07:17:41;;;;;;;10.52;6.93;;;22.30;91.10;;;;;;5095526;28;20421;-53
2021/07/27 07:20:08;;;;;;;9.82;7.55;;;22.40;90.80;;;;;;5096381;28;20047;-52
2021/07/27 07:22:35;;;;;;;10.13;7.25;;;22.30;90.60;;;;;;5095978;28;20024;-52
2021/07/27 07:25:00;;;;;;;8.95;7.60;;;22.40;90.80;;;;;;5082005;28;20028;-53
2021/07/27 07:27:26;;;;;;;9.95;7.80;;;22.50;90.70;;;;;;5057136;28;20043;-51
2021/07/27 07:29:56;;;;;;;8.23;6.85;;;22.50;90.60;;;;;;5074876;28;20134;-54
2021/07/27 07:32:22;;;;;;;8.73;7.82;;;22.40;90.70;;;;;;5075283;28;20025;-51
2021/07/27 07:34:48;;;;;;;9.23;6.95;;;22.30;90.60;;;;;;5075422;28;20115;-54
2021/07/27 07:37:13;;;;;;;7.55;6.57;;;22.30;90.30;;;;;;5075405;28;20403;-49
2021/07/27 07:39:39;;;;;;;8.80;7.30;;;22.40;90.30;;;;;;5093705;28;20111;-51
2021/07/27 07:42:05;;;;;;;9.32;6.95;;;22.50;90.30;;;;;;5095031;28;20040;-52
2021/07/27 07:44:32;;;;;;;7.38;6.45;;;22.50;90.00;;;;;;5094481;28;20024;-51
2021/07/27 07:46:58;;;;;;;10.02;6.78;;;22.50;90.00;;;;;;5094840;28;20028;-47
2021/07/27 07:49:23;;;;;;;9.77;7.35;;;22.60;89.70;;;;;;5095189;28;20372;-51
2021/07/27 07:51:50;;;;;;;9.30;6.68;;;22.80;89.20;;;;;;5094725;28;20028;-48
2021/07/27 07:54:19;;;;;;;10.38;6.90;;;22.80;89.70;;;;;;5095411;28;20059;-50
2021/07/27 07:56:46;;;;;;;7.70;6.40;;;22.80;89.10;;;;;;5086017;28;20036;-54
2021/07/27 07:59:12;;;;;;;7.50;6.53;;;22.70;88.90;;;;;;5083698;28;20122;-49
2021/07/27 08:01:38;;;;;;;7.68;6.57;;;22.70;89.10;;;;;;5095622;28;20028;-47
2021/07/27 08:04:05;;;;;;;8.27;7.32;;;22.70;88.80;;;;;;5093726;28;20493;-48
2021/07/27 08:06:31;;;;;;;8.10;6.63;;;22.60;88.60;;;;;;5084154;28;20539;-49
2021/07/27 08:08:57;;;;;;;7.53;6.47;;;22.80;88.10;;;;;;5085032;28;20050;-48
2021/07/27 08:11:22;;;;;;;10.43;6.68;;;22.80;88.50;;;;;;5085258;28;20046;-49
2021/07/27 08:13:52;;;;;;;8.88;7.05;;;23.00;88.20;;;;;;5085270;28;20048;-50
2021/07/27 08:16:17;;;;;;;8.98;6.68;;;23.00;86.90;;;;;;5082356;28;20024;-51
2021/07/27 08:18:43;;;;;;;9.27;6.80;;;23.10;87.80;;;;;;5080071;28;20111;-53
2021/07/27 08:21:08;;;;;;;8.23;6.32;;;23.40;86.70;;;;;;5078232;28;20090;-51
2021/07/27 08:23:35;;;;;;;7.95;5.97;;;23.50;85.80;;;;;;5080026;28;20038;-50
2021/07/27 08:26:02;;;;;;;7.75;6.32;;;23.50;85.10;;;;;;5081555;28;20047;-51
2021/07/27 08:28:28;;;;;;;9.43;5.95;;;23.40;85.60;;;;;;5082586;28;20036;-49
2021/07/27 08:30:53;;;;;;;9.88;6.13;;;23.40;86.10;;;;;;5083158;28;20521;-49
2021/07/27 08:33:22;;;;;;;6.88;5.63;;;23.50;85.00;;;;;;5081464;28;20476;-46
2021/07/27 08:35:48;;;;;;;6.68;5.80;;;23.50;84.80;;;;;;5084377;28;20024;-47
2021/07/27 08:38:14;;;;;;;6.57;5.68;;;23.40;85.50;;;;;;5084539;28;20031;-50
2021/07/27 08:40:40;;;;;;;6.70;5.93;;;23.30;84.50;;;;;;5054807;28;20521;-53
2021/07/27 08:43:08;;;;;;;7.57;5.45;;;23.30;84.00;;;;;;5084958;28;20029;-52
2021/07/27 08:45:33;;;;;;;6.60;5.63;;;23.60;84.30;;;;;;5083703;28;20024;-55
2021/07/27 08:48:00;;;;;;;10.52;5.95;;;23.90;83.80;;;;;;5068128;28;20407;-52
2021/07/27 08:50:26;;;;;;;6.90;5.70;;;24.00;83.50;;;;;;5084754;28;20028;-50
2021/07/27 08:52:53;;;;;;;12.77;5.53;;;23.60;83.10;;;;;;5083126;28;20021;-48
2021/07/27 08:55:18;;;;;;;7.45;5.85;;;23.40;84.00;;;;;;5082211;28;20024;-50
2021/07/27 08:57:55;;;;;;;9.60;5.82;;;23.40;82.70;;;;;;5081005;28;20023;-49
2021/07/27 09:00:21;;;;;;;6.75;6.00;;;23.50;83.10;;;;;;5080726;28;20028;-51
2021/07/27 09:02:47;;;;;;;9.00;6.25;;;23.40;82.40;;;;;;5085950;28;20055;-47
2021/07/27 09:05:14;;;;;;;6.43;5.15;;;23.40;82.90;;;;;;5082991;28;20044;-51
2021/07/27 09:07:40;;;;;;;6.70;5.18;;;23.40;83.00;;;;;;5080633;28;20033;-47
2021/07/27 09:10:20;;;;;;;7.97;5.20;;;23.60;82.20;;;;;;5078550;28;20040;-52
2021/07/27 09:13:04;;;;;;;6.07;5.40;;;23.90;81.60;;;;;;5081804;28;20024;-50
2021/07/27 09:15:32;;;;;;;6.05;4.88;;;23.90;81.10;;;;;;5084704;28;20039;-51
2021/07/27 09:18:05;;;;;;;15.02;6.57;;;23.90;81.40;;;;;;5081556;28;20036;-47
2021/07/27 09:20:39;;;;;;;7.60;5.20;;;23.70;80.70;;;;;;5082895;28;20036;-47
2021/07/27 09:23:06;;;;;;;7.20;4.80;;;23.70;80.50;;;;;;5083230;28;20040;-51
2021/07/27 09:25:33;;;;;;;9.52;5.40;;;23.60;80.10;;;;;;5060451;28;20029;-46
2021/07/27 09:28:09;;;;;;;10.23;4.90;;;23.60;80.30;;;;;;5088621;28;20583;-51
2021/07/27 09:30:40;;;;;;;6.15;5.30;;;23.50;79.30;;;;;;5092887;28;20062;-54
2021/07/27 09:33:07;;;;;;;6.57;4.90;;;23.40;80.10;;;;;;5089381;28;20043;-50
2021/07/27 09:35:34;;;;;;;5.90;5.07;;;23.50;80.80;;;;;;5094034;28;20063;-52
2021/07/27 09:38:02;;;;;;;7.30;4.55;;;23.70;80.70;;;;;;5093371;28;20050;-50
2021/07/27 09:40:28;;;;;;;7.32;4.70;;;23.80;80.30;;;;;;5093229;28;20028;-50
2021/07/27 09:42:53;;;;;;;10.02;5.10;;;23.80;79.80;;;;;;5089661;28;20035;-47
2021/07/27 09:45:20;;;;;;;7.38;4.57;;;23.90;79.80;;;;;;5081632;28;20020;-52
2021/07/27 09:47:48;;;;;;;6.15;4.75;;;23.90;79.50;;;;;;5083240;28;20025;-50
2021/07/27 09:50:15;;;;;;;8.20;5.40;;;23.90;79.00;;;;;;5053993;28;20103;-54
2021/07/27 09:52:43;;;;;;;6.07;4.68;;;23.90;79.00;;;;;;5077259;28;20020;-53
2021/07/27 09:55:11;;;;;;;5.30;4.80;;;24.00;78.20;;;;;;5064718;28;20039;-48
2021/07/27 09:57:36;;;;;;;5.97;4.38;;;24.10;77.50;;;;;;5081527;28;20025;-54
2021/07/27 10:00:03;;;;;;;5.20;4.45;;;24.10;78.20;;;;;;5092211;28;20039;-47
2021/07/27 10:02:30;;;;;;;4.80;4.30;;;24.30;76.60;;;;;;5091923;28;20391;-51
2021/07/27 10:04:57;;;;;;;7.13;4.60;;;24.50;77.20;;;;;;5091116;28;20031;-48
2021/07/27 10:07:29;;;;;;;5.55;4.18;;;24.60;77.40;;;;;;5105589;28;20403;-54
2021/07/27 10:10:09;;;;;;;5.25;4.20;;;24.60;76.90;;;;;;5109763;28;20035;-52
2021/07/27 10:12:38;;;;;;;6.57;4.10;;;24.70;76.50;;;;;;5072264;28;20140;-50
2021/07/27 10:15:12;;;;;;;5.70;4.68;;;24.80;75.70;;;;;;5086046;28;20027;-51
2021/07/27 10:17:54;;;;;;;5.07;4.38;;;24.90;75.50;;;;;;5108643;28;20032;-55
2021/07/27 10:20:28;;;;;;;6.40;4.00;;;24.80;75.30;;;;;;5091826;28;20036;-47
2021/07/27 10:22:54;;;;;;;4.30;3.90;;;24.50;75.20;;;;;;5092051;28;20032;-50
2021/07/27 10:25:24;;;;;;;5.18;4.20;;;24.40;76.50;;;;;;5091882;28;20632;-48
2021/07/27 10:27:54;;;;;;;4.55;3.95;;;24.50;76.30;;;;;;5090998;28;20040;-47
2021/07/27 10:30:31;;;;;;;5.28;4.70;;;24.40;76.30;;;;;;5092523;28;20048;-49
2021/07/27 10:32:57;;;;;;;4.45;4.05;;;24.40;75.80;;;;;;5091426;28;20046;-49
2021/07/27 10:35:34;;;;;;;4.65;3.90;;;24.60;75.10;;;;;;5091678;28;20103;-52
2021/07/27 10:38:14;;;;;;;7.10;4.38;;;24.50;75.40;;;;;;5092270;28;20036;-49
2021/07/27 10:40:43;;;;;;;4.72;4.22;;;24.50;75.60;;;;;;5074467;28;20024;-47
2021/07/27 10:43:09;;;;;;;4.57;4.18;;;24.50;75.40;;;;;;5080310;28;20028;-49
2021/07/27 10:45:35;;;;;;;6.35;4.15;;;24.60;75.20;;;;;;5089172;28;20028;-47
2021/07/27 10:48:01;;;;;;;4.75;4.32;;;24.90;75.30;;;;;;5091843;28;20396;-47
2021/07/27 10:50:29;;;;;;;5.25;4.03;;;25.20;75.20;;;;;;5091488;28;20031;-46
2021/07/27 10:53:02;;;;;;;10.30;4.93;;;25.30;74.50;;;;;;5091761;28;20028;-51
2021/07/27 10:55:29;;;;;;;5.23;4.30;;;25.40;73.50;;;;;;5091445;28;20086;-49
2021/07/27 10:57:56;;;;;;;6.35;4.18;;;25.30;73.40;;;;;;5087072;28;20484;-50
2021/07/27 11:00:32;;;;;;;5.40;4.13;;;25.20;72.50;;;;;;5085277;28;20085;-49
2021/07/27 11:02:58;;;;;;;6.90;4.13;;;25.00;71.60;;;;;;5079362;28;20032;-54
2021/07/27 11:05:28;;;;;;;4.75;3.92;;;24.80;72.80;;;;;;5091601;28;20024;-48
2021/07/27 11:07:54;;;;;;;5.30;4.35;;;24.80;72.90;;;;;;5091528;28;20089;-54
2021/07/27 11:10:21;;;;;;;5.45;4.40;;;24.80;73.50;;;;;;5091608;28;20066;-50
2021/07/27 11:12:47;;;;;;;5.13;4.53;;;24.70;74.30;;;;;;5091197;28;20032;-47
2021/07/27 11:15:23;;;;;;;5.22;4.70;;;24.80;74.60;;;;;;5091733;28;20027;-51
2021/07/27 11:17:51;;;;;;;5.88;4.55;;;25.00;74.10;;;;;;5073535;28;20024;-51
2021/07/27 11:20:21;;;;;;;4.85;4.30;;;25.10;73.20;;;;;;5084169;28;20661;-50
2021/07/27 11:22:51;;;;;;;5.57;4.53;;;25.10;73.50;;;;;;5086206;28;20123;-49
2021/07/27 11:25:18;;;;;;;4.80;4.30;;;25.20;74.50;;;;;;5092052;28;20032;-47
2021/07/27 11:27:44;;;;;;;5.03;4.53;;;25.40;73.90;;;;;;5091341;28;20169;-51
2021/07/27 11:30:12;;;;;;;6.07;4.88;;;25.60;71.90;;;;;;5092112;28;20115;-47
2021/07/27 11:32:48;;;;;;;6.07;4.60;;;25.50;73.30;;;;;;5095055;28;20028;-50
2021/07/27 11:35:16;;;;;;;6.82;4.55;;;25.50;73.10;;;;;;5095051;28;20069;-47
2021/07/27 11:37:44;;;;;;;4.80;4.40;;;25.40;71.70;;;;;;5094971;28;20077;-49
2021/07/27 11:40:24;;;;;;;5.30;4.65;;;25.40;72.60;;;;;;5094539;28;20036;-48
2021/07/27 11:43:11;;;;;;;5.88;4.40;;;25.40;72.60;;;;;;5089339;28;20059;-51
2021/07/27 11:45:42;;;;;;;5.13;4.63;;;25.40;72.70;;;;;;5081616;28;20028;-47
2021/07/27 11:48:09;;;;;;;6.18;4.40;;;25.20;72.90;;;;;;5094708;28;20032;-50
2021/07/27 11:50:40;;;;;;;6.78;4.53;;;25.30;73.30;;;;;;5095160;28;20020;-47
2021/07/27 11:53:06;;;;;;;4.70;4.03;;;25.50;72.90;;;;;;5095191;28;20043;-47
2021/07/27 11:55:36;;;;;;;5.03;4.53;;;25.60;72.20;;;;;;5093000;28;20042;-48
2021/07/27 11:58:03;;;;;;;5.28;4.38;;;25.70;72.10;;;;;;5097781;28;20020;-51
2021/07/27 12:00:32;;;;;;;5.07;4.40;;;25.80;72.40;;;;;;5094878;28;20024;-50
2021/07/27 12:03:04;;;;;;;5.28;4.55;;;25.80;70.90;;;;;;5090391;28;20040;-51
2021/07/27 12:05:33;;;;;;;7.15;5.15;;;25.90;72.00;;;;;;5094237;28;20093;-48
2021/07/27 12:08:01;;;;;;;6.93;4.85;;;25.90;70.60;;;;;;5094635;28;20046;-48
2021/07/27 12:10:27;;;;;;;9.98;5.70;;;25.90;70.80;;;;;;5094196;28;20021;-48
2021/07/27 12:12:52;;;;;;;16.77;6.82;;;26.00;71.50;;;;;;5097990;28;20081;-50
2021/07/27 12:15:19;;;;;;;12.82;6.10;;;26.20;69.70;;;;;;5105259;28;20098;-49
2021/07/27 12:17:45;;;;;;;8.45;4.57;;;26.10;70.10;;;;;;5109523;28;20035;-48
2021/07/27 12:20:13;;;;;;;20.85;6.13;;;26.30;69.10;;;;;;5086570;28;20389;-53
2021/07/27 12:22:42;;;;;;;11.85;4.97;;;26.50;69.10;;;;;;5094350;28;20054;-50
2021/07/27 12:25:08;;;;;;;19.08;7.22;;;26.60;68.40;;;;;;5093924;28;20044;-49
2021/07/27 12:27:33;;;;;;;4.35;3.80;;;26.60;67.70;;;;;;5093851;28;20032;-49
2021/07/27 12:29:59;;;;;;;5.85;4.07;;;26.40;66.50;;;;;;5093497;28;20032;-49
2021/07/27 12:32:25;;;;;;;4.70;4.18;;;26.40;67.50;;;;;;5093768;28;20027;-53
2021/07/27 12:34:53;;;;;;;4.20;3.80;;;26.40;67.60;;;;;;5094162;28;20086;-51
2021/07/27 12:37:19;;;;;;;6.07;4.10;;;26.30;67.30;;;;;;5093429;28;20048;-47
2021/07/27 12:39:45;;;;;;;5.72;4.65;;;26.60;68.30;;;;;;5094190;28;20041;-48
2021/07/27 12:42:11;;;;;;;6.47;4.28;;;26.80;68.00;;;;;;5090150;28;20047;-51
2021/07/27 12:44:36;;;;;;;5.20;4.63;;;26.90;67.80;;;;;;5094327;28;20024;-47
2021/07/27 12:47:03;;;;;;;6.53;4.20;;;26.90;67.70;;;;;;5094447;28;20059;-47
2021/07/27 12:49:28;;;;;;;4.78;4.38;;;27.00;67.30;;;;;;5093754;28;20561;-50
2021/07/27 12:51:54;;;;;;;5.95;4.45;;;26.80;67.00;;;;;;5088230;28;20032;-51
2021/07/27 12:54:19;;;;;;;4.50;4.10;;;27.00;67.70;;;;;;5093697;28;20020;-50
2021/07/27 12:56:45;;;;;;;7.63;4.30;;;27.00;67.10;;;;;;5093104;28;20403;-52
2021/07/27 12:59:11;;;;;;;6.63;4.50;;;27.10;65.90;;;;;;5092556;28;20455;-49
2021/07/27 13:01:36;;;;;;;8.80;4.68;;;27.10;66.20;;;;;;5093792;28;20044;-49